sensor_id;sensor_type;location;lat;lon;timestamp;pressure;altitude;pressure_sealevel;temperature;humidity
76519;BME280;67029;51.054;13.798;2023-09-19T00:01:23;99585.45;;;21.41;62.43
76519;BME280;67029;51.054;13.798;2023-09-19T00:03:53;99581.08;;;21.47;62.53
76519;BME280;67029;51.054;13.798;2023-09-19T00:06:23;99586.91;;;21.49;62.19
76519;BME280;67029;51.054;13.798;2023-09-19T00:08:53;99593.45;;;21.45;62.30
76519;BME280;67029;51.054;13.798;2023-09-19T00:11:24;99589.40;;;21.47;61.90
76519;BME280;67029;51.054;13.798;2023-09-19T00:13:54;99592.38;;;21.51;61.74
76519;BME280;67029;51.054;13.798;2023-09-19T00:16:24;99587.83;;;21.49;61.73
76519;BME280;67029;51.054;13.798;2023-09-19T00:18:54;99589.06;;;21.52;61.69
76519;BME280;67029;51.054;13.798;2023-09-19T00:21:24;99595.73;;;21.55;61.37
76519;BME280;67029;51.054;13.798;2023-09-19T00:23:54;99595.03;;;21.57;61.45
76519;BME280;67029;51.054;13.798;2023-09-19T00:26:24;99593.76;;;21.61;61.40
76519;BME280;67029;51.054;13.798;2023-09-19T00:28:54;99586.09;;;21.61;61.47
76519;BME280;67029;51.054;13.798;2023-09-19T00:31:24;99579.25;;;21.64;61.43
76519;BME280;67029;51.054;13.798;2023-09-19T00:33:54;99571.99;;;21.66;61.76
76519;BME280;67029;51.054;13.798;2023-09-19T00:36:24;99572.19;;;21.66;61.77
76519;BME280;67029;51.054;13.798;2023-09-19T00:38:54;99571.72;;;21.66;61.50
76519;BME280;67029;51.054;13.798;2023-09-19T00:41:24;99576.23;;;21.65;61.56
76519;BME280;67029;51.054;13.798;2023-09-19T00:43:54;99566.22;;;21.62;61.27
76519;BME280;67029;51.054;13.798;2023-09-19T00:46:24;99568.34;;;21.66;61.77
76519;BME280;67029;51.054;13.798;2023-09-19T00:48:54;99570.92;;;21.67;61.76
76519;BME280;67029;51.054;13.798;2023-09-19T00:51:24;99569.27;;;21.66;61.58
76519;BME280;67029;51.054;13.798;2023-09-19T00:53:54;99574.16;;;21.65;61.65
76519;BME280;67029;51.054;13.798;2023-09-19T00:56:24;99568.58;;;21.64;61.71
76519;BME280;67029;51.054;13.798;2023-09-19T00:58:55;99566.10;;;21.66;61.84
76519;BME280;67029;51.054;13.798;2023-09-19T01:01:25;99565.70;;;21.66;61.63
76519;BME280;67029;51.054;13.798;2023-09-19T01:03:55;99567.73;;;21.65;61.44
76519;BME280;67029;51.054;13.798;2023-09-19T01:06:25;99564.36;;;21.64;61.67
76519;BME280;67029;51.054;13.798;2023-09-19T01:08:55;99564.08;;;21.61;61.57
76519;BME280;67029;51.054;13.798;2023-09-19T01:11:38;99568.33;;;21.62;61.67
76519;BME280;67029;51.054;13.798;2023-09-19T01:14:09;99575.14;;;21.61;61.40
76519;BME280;67029;51.054;13.798;2023-09-19T01:16:39;99581.77;;;21.51;61.51
76519;BME280;67029;51.054;13.798;2023-09-19T01:21:44;99585.59;;;21.50;61.79
76519;BME280;67029;51.054;13.798;2023-09-19T01:29:33;99590.95;;;21.43;61.55
76519;BME280;67029;51.054;13.798;2023-09-19T01:31:31;99600.80;;;21.44;61.64
76519;BME280;67029;51.054;13.798;2023-09-19T01:34:01;99595.09;;;21.44;61.59
76519;BME280;67029;51.054;13.798;2023-09-19T01:36:35;99598.50;;;21.42;61.61
76519;BME280;67029;51.054;13.798;2023-09-19T01:39:02;99598.75;;;21.43;61.71
76519;BME280;67029;51.054;13.798;2023-09-19T01:41:56;99603.36;;;21.45;61.81
76519;BME280;67029;51.054;13.798;2023-09-19T01:44:03;99598.76;;;21.45;61.58
76519;BME280;67029;51.054;13.798;2023-09-19T01:46:34;99588.59;;;21.43;61.46
76519;BME280;67029;51.054;13.798;2023-09-19T01:54:09;99590.66;;;21.44;61.67
76519;BME280;67029;51.054;13.798;2023-09-19T01:59:07;99587.95;;;21.42;61.41
76519;BME280;67029;51.054;13.798;2023-09-19T02:01:34;99594.31;;;21.40;61.59
76519;BME280;67029;51.054;13.798;2023-09-19T02:04:05;99602.73;;;21.42;61.53
76519;BME280;67029;51.054;13.798;2023-09-19T02:06:35;99605.90;;;21.42;61.39
76519;BME280;67029;51.054;13.798;2023-09-19T02:09:05;99603.20;;;21.44;61.57
76519;BME280;67029;51.054;13.798;2023-09-19T02:11:35;99601.70;;;21.45;61.62
76519;BME280;67029;51.054;13.798;2023-09-19T02:14:05;99611.76;;;21.44;61.56
76519;BME280;67029;51.054;13.798;2023-09-19T02:16:35;99616.59;;;21.45;61.51
76519;BME280;67029;51.054;13.798;2023-09-19T02:19:05;99614.07;;;21.42;61.39
76519;BME280;67029;51.054;13.798;2023-09-19T02:21:35;99605.07;;;21.40;61.49
76519;BME280;67029;51.054;13.798;2023-09-19T02:24:05;99611.94;;;21.39;61.34
76519;BME280;67029;51.054;13.798;2023-09-19T02:26:35;99612.95;;;21.38;61.39
76519;BME280;67029;51.054;13.798;2023-09-19T02:29:05;99617.34;;;21.36;61.33
76519;BME280;67029;51.054;13.798;2023-09-19T02:31:35;99619.03;;;21.34;61.32
76519;BME280;67029;51.054;13.798;2023-09-19T02:34:08;99621.20;;;21.34;61.60
76519;BME280;67029;51.054;13.798;2023-09-19T02:36:36;99621.12;;;21.35;61.43
76519;BME280;67029;51.054;13.798;2023-09-19T02:39:06;99618.61;;;21.33;61.40
76519;BME280;67029;51.054;13.798;2023-09-19T02:41:36;99622.53;;;21.35;61.46
76519;BME280;67029;51.054;13.798;2023-09-19T02:44:06;99623.75;;;21.36;61.52
76519;BME280;67029;51.054;13.798;2023-09-19T02:46:36;99633.56;;;21.40;62.08
76519;BME280;67029;51.054;13.798;2023-09-19T02:49:06;99640.23;;;21.38;61.66
76519;BME280;67029;51.054;13.798;2023-09-19T02:51:36;99636.67;;;21.38;61.66
76519;BME280;67029;51.054;13.798;2023-09-19T02:54:07;99629.17;;;21.30;61.46
76519;BME280;67029;51.054;13.798;2023-09-19T02:56:37;99627.17;;;21.31;61.91
76519;BME280;67029;51.054;13.798;2023-09-19T02:59:07;99632.75;;;21.32;61.74
76519;BME280;67029;51.054;13.798;2023-09-19T03:01:37;99639.55;;;21.31;61.70
76519;BME280;67029;51.054;13.798;2023-09-19T03:04:07;99637.52;;;21.29;61.56
76519;BME280;67029;51.054;13.798;2023-09-19T03:06:38;99643.20;;;21.29;61.62
76519;BME280;67029;51.054;13.798;2023-09-19T03:09:08;99644.80;;;21.30;61.72
76519;BME280;67029;51.054;13.798;2023-09-19T03:11:38;99652.23;;;21.29;61.66
76519;BME280;67029;51.054;13.798;2023-09-19T03:14:08;99653.12;;;21.27;61.57
76519;BME280;67029;51.054;13.798;2023-09-19T03:16:38;99653.70;;;21.24;61.60
76519;BME280;67029;51.054;13.798;2023-09-19T03:19:08;99653.73;;;21.22;61.41
76519;BME280;67029;51.054;13.798;2023-09-19T03:21:38;99660.17;;;21.21;61.06
76519;BME280;67029;51.054;13.798;2023-09-19T03:24:08;99665.98;;;21.22;61.18
76519;BME280;67029;51.054;13.798;2023-09-19T03:26:38;99667.84;;;21.21;60.94
76519;BME280;67029;51.054;13.798;2023-09-19T03:29:08;99667.17;;;21.20;60.75
76519;BME280;67029;51.054;13.798;2023-09-19T03:31:38;99666.22;;;21.19;60.54
76519;BME280;67029;51.054;13.798;2023-09-19T03:34:08;99661.92;;;21.18;60.49
76519;BME280;67029;51.054;13.798;2023-09-19T03:36:44;99664.83;;;21.20;60.44
76519;BME280;67029;51.054;13.798;2023-09-19T03:39:09;99666.79;;;21.22;60.30
76519;BME280;67029;51.054;13.798;2023-09-19T03:41:39;99665.77;;;21.23;60.31
76519;BME280;67029;51.054;13.798;2023-09-19T03:44:09;99663.06;;;21.25;60.15
76519;BME280;67029;51.054;13.798;2023-09-19T03:46:39;99659.73;;;21.25;60.13
76519;BME280;67029;51.054;13.798;2023-09-19T03:49:09;99665.48;;;21.18;60.24
76519;BME280;67029;51.054;13.798;2023-09-19T03:51:39;99666.59;;;21.21;60.05
76519;BME280;67029;51.054;13.798;2023-09-19T03:54:09;99667.48;;;21.26;60.02
76519;BME280;67029;51.054;13.798;2023-09-19T03:56:39;99668.00;;;21.30;60.02
76519;BME280;67029;51.054;13.798;2023-09-19T03:59:09;99666.50;;;21.33;59.87
76519;BME280;67029;51.054;13.798;2023-09-19T04:01:39;99667.83;;;21.34;59.84
76519;BME280;67029;51.054;13.798;2023-09-19T04:04:09;99673.00;;;21.34;59.83
76519;BME280;67029;51.054;13.798;2023-09-19T04:06:39;99672.37;;;21.31;59.78
76519;BME280;67029;51.054;13.798;2023-09-19T04:09:09;99676.61;;;21.23;59.88
76519;BME280;67029;51.054;13.798;2023-09-19T04:11:39;99678.31;;;21.23;59.76
76519;BME280;67029;51.054;13.798;2023-09-19T04:14:09;99676.52;;;21.26;59.75
76519;BME280;67029;51.054;13.798;2023-09-19T04:16:39;99684.55;;;21.25;59.83
76519;BME280;67029;51.054;13.798;2023-09-19T04:19:09;99688.04;;;21.26;59.70
76519;BME280;67029;51.054;13.798;2023-09-19T04:21:39;99690.66;;;21.25;59.82
76519;BME280;67029;51.054;13.798;2023-09-19T04:24:10;99691.83;;;21.23;59.76
76519;BME280;67029;51.054;13.798;2023-09-19T04:26:39;99694.02;;;21.17;59.84
76519;BME280;67029;51.054;13.798;2023-09-19T04:29:09;99688.72;;;21.18;59.72
76519;BME280;67029;51.054;13.798;2023-09-19T04:31:40;99684.02;;;21.22;59.53
76519;BME280;67029;51.054;13.798;2023-09-19T04:34:09;99678.51;;;21.16;59.52
76519;BME280;67029;51.054;13.798;2023-09-19T04:36:39;99681.86;;;21.15;59.63
76519;BME280;67029;51.054;13.798;2023-09-19T04:39:10;99676.02;;;nan;59.62
76519;BME280;67029;51.054;13.798;2023-09-19T04:41:39;99691.28;;;21.21;59.30
76519;BME280;67029;51.054;13.798;2023-09-19T04:44:09;99694.84;;;21.18;59.41
76519;BME280;67029;51.054;13.798;2023-09-19T04:46:39;99699.98;;;21.16;59.40
76519;BME280;67029;51.054;13.798;2023-09-19T04:49:10;99701.87;;;21.21;59.19
76519;BME280;67029;51.054;13.798;2023-09-19T04:51:40;99705.07;;;21.23;59.20
76519;BME280;67029;51.054;13.798;2023-09-19T04:54:10;99699.61;;;21.25;59.10
76519;BME280;67029;51.054;13.798;2023-09-19T04:56:40;99704.66;;;21.25;58.99
76519;BME280;67029;51.054;13.798;2023-09-19T04:59:10;99702.72;;;21.21;59.05
76519;BME280;67029;51.054;13.798;2023-09-19T05:01:40;99706.50;;;21.17;59.14
76519;BME280;67029;51.054;13.798;2023-09-19T05:04:10;99714.48;;;21.14;59.16
76519;BME280;67029;51.054;13.798;2023-09-19T05:06:40;99719.30;;;21.18;59.09
76519;BME280;67029;51.054;13.798;2023-09-19T05:09:10;99724.45;;;21.24;58.90
76519;BME280;67029;51.054;13.798;2023-09-19T05:11:40;99724.25;;;21.26;58.79
76519;BME280;67029;51.054;13.798;2023-09-19T05:14:10;99730.06;;;21.28;58.74
76519;BME280;67029;51.054;13.798;2023-09-19T05:16:40;99741.55;;;21.27;58.75
76519;BME280;67029;51.054;13.798;2023-09-19T05:19:10;99742.66;;;21.27;58.69
76519;BME280;67029;51.054;13.798;2023-09-19T05:21:40;99743.95;;;21.30;58.58
76519;BME280;67029;51.054;13.798;2023-09-19T05:24:10;99749.97;;;21.34;58.46
76519;BME280;67029;51.054;13.798;2023-09-19T05:26:40;99747.83;;;21.32;58.56
76519;BME280;67029;51.054;13.798;2023-09-19T05:29:10;99747.16;;;21.33;58.60
76519;BME280;67029;51.054;13.798;2023-09-19T05:31:40;99742.88;;;21.40;58.46
76519;BME280;67029;51.054;13.798;2023-09-19T05:34:10;99749.85;;;21.39;58.46
76519;BME280;67029;51.054;13.798;2023-09-19T05:36:40;99752.20;;;21.40;58.38
76519;BME280;67029;51.054;13.798;2023-09-19T05:39:10;99743.70;;;21.51;58.10
76519;BME280;67029;51.054;13.798;2023-09-19T05:41:40;99748.14;;;21.52;58.04
76519;BME280;67029;51.054;13.798;2023-09-19T05:44:10;99759.73;;;21.64;57.71
76519;BME280;67029;51.054;13.798;2023-09-19T05:46:40;99756.20;;;21.68;57.61
76519;BME280;67029;51.054;13.798;2023-09-19T05:49:10;99762.08;;;21.75;57.51
76519;BME280;67029;51.054;13.798;2023-09-19T05:51:40;99768.42;;;21.77;57.51
76519;BME280;67029;51.054;13.798;2023-09-19T05:54:11;99775.54;;;21.82;57.43
76519;BME280;67029;51.054;13.798;2023-09-19T05:56:40;99778.38;;;21.83;57.29
76519;BME280;67029;51.054;13.798;2023-09-19T05:59:10;99784.77;;;21.88;57.13
76519;BME280;67029;51.054;13.798;2023-09-19T06:01:41;99780.17;;;21.95;56.96
76519;BME280;67029;51.054;13.798;2023-09-19T06:04:10;99779.92;;;21.94;56.86
76519;BME280;67029;51.054;13.798;2023-09-19T06:06:40;99775.30;;;22.00;56.68
76519;BME280;67029;51.054;13.798;2023-09-19T06:09:10;99775.08;;;22.08;56.36
76519;BME280;67029;51.054;13.798;2023-09-19T06:11:44;99780.52;;;22.16;56.19
76519;BME280;67029;51.054;13.798;2023-09-19T06:14:11;99785.12;;;22.20;56.02
76519;BME280;67029;51.054;13.798;2023-09-19T06:16:41;99787.78;;;22.25;56.05
76519;BME280;67029;51.054;13.798;2023-09-19T06:19:11;99791.25;;;22.34;55.87
76519;BME280;67029;51.054;13.798;2023-09-19T06:21:41;99796.12;;;22.39;55.52
76519;BME280;67029;51.054;13.798;2023-09-19T06:24:11;99803.05;;;22.36;55.53
76519;BME280;67029;51.054;13.798;2023-09-19T06:26:41;99810.45;;;22.41;55.52
76519;BME280;67029;51.054;13.798;2023-09-19T06:29:11;99814.20;;;22.43;55.40
76519;BME280;67029;51.054;13.798;2023-09-19T06:31:41;99814.52;;;22.46;55.20
76519;BME280;67029;51.054;13.798;2023-09-19T06:34:11;99821.42;;;22.50;55.07
76519;BME280;67029;51.054;13.798;2023-09-19T06:36:41;99819.84;;;22.41;55.21
76519;BME280;67029;51.054;13.798;2023-09-19T06:39:11;99820.89;;;22.45;55.12
76519;BME280;67029;51.054;13.798;2023-09-19T06:41:41;99827.57;;;22.48;55.11
76519;BME280;67029;51.054;13.798;2023-09-19T06:44:11;99831.17;;;22.54;55.07
76519;BME280;67029;51.054;13.798;2023-09-19T06:46:41;99833.49;;;22.60;54.96
76519;BME280;67029;51.054;13.798;2023-09-19T06:49:11;99837.31;;;22.73;54.79
76519;BME280;67029;51.054;13.798;2023-09-19T06:51:41;99843.45;;;22.81;54.61
76519;BME280;67029;51.054;13.798;2023-09-19T06:54:11;99844.91;;;22.93;54.40
76519;BME280;67029;51.054;13.798;2023-09-19T06:56:41;99852.08;;;23.07;54.18
76519;BME280;67029;51.054;13.798;2023-09-19T06:59:11;99852.92;;;23.17;54.11
76519;BME280;67029;51.054;13.798;2023-09-19T07:01:41;99853.16;;;23.38;53.82
76519;BME280;67029;51.054;13.798;2023-09-19T07:04:11;99862.45;;;23.50;53.59
76519;BME280;67029;51.054;13.798;2023-09-19T07:06:41;99868.52;;;23.65;53.43
76519;BME280;67029;51.054;13.798;2023-09-19T07:09:11;99860.25;;;23.82;52.88
76519;BME280;67029;51.054;13.798;2023-09-19T07:11:42;99860.28;;;23.92;52.37
76519;BME280;67029;51.054;13.798;2023-09-19T07:14:12;99862.23;;;24.13;52.13
76519;BME280;67029;51.054;13.798;2023-09-19T07:16:42;99865.17;;;24.43;51.59
76519;BME280;67029;51.054;13.798;2023-09-19T07:19:15;99867.24;;;24.57;51.03
76519;BME280;67029;51.054;13.798;2023-09-19T07:21:43;99879.60;;;24.71;49.29
76519;BME280;67029;51.054;13.798;2023-09-19T07:24:13;99887.02;;;24.60;48.92
76519;BME280;67029;51.054;13.798;2023-09-19T07:26:43;99892.27;;;24.69;49.16
76519;BME280;67029;51.054;13.798;2023-09-19T07:29:13;99907.22;;;24.76;47.54
76519;BME280;67029;51.054;13.798;2023-09-19T07:31:43;99899.03;;;24.66;47.42
76519;BME280;67029;51.054;13.798;2023-09-19T07:34:14;99899.40;;;24.60;47.28
76519;BME280;67029;51.054;13.798;2023-09-19T07:36:44;99901.16;;;24.66;47.38
76519;BME280;67029;51.054;13.798;2023-09-19T07:39:14;99904.25;;;24.74;46.83
76519;BME280;67029;51.054;13.798;2023-09-19T07:41:43;99903.16;;;24.99;45.67
76519;BME280;67029;51.054;13.798;2023-09-19T07:44:13;99907.25;;;25.13;46.24
76519;BME280;67029;51.054;13.798;2023-09-19T07:46:44;99916.14;;;25.37;44.93
76519;BME280;67029;51.054;13.798;2023-09-19T07:49:14;99913.61;;;25.41;43.80
76519;BME280;67029;51.054;13.798;2023-09-19T07:51:44;99914.17;;;25.61;43.74
76519;BME280;67029;51.054;13.798;2023-09-19T07:54:14;99914.80;;;25.85;44.54
76519;BME280;67029;51.054;13.798;2023-09-19T07:56:44;99918.19;;;26.10;44.24
76519;BME280;67029;51.054;13.798;2023-09-19T07:59:14;99920.58;;;26.43;43.49
76519;BME280;67029;51.054;13.798;2023-09-19T08:01:44;99920.38;;;26.72;42.87
76519;BME280;67029;51.054;13.798;2023-09-19T08:04:14;99926.03;;;27.12;42.03
76519;BME280;67029;51.054;13.798;2023-09-19T08:06:44;99918.31;;;27.46;40.78
76519;BME280;67029;51.054;13.798;2023-09-19T08:09:14;99921.25;;;27.79;40.26
76519;BME280;67029;51.054;13.798;2023-09-19T08:11:44;99918.32;;;27.74;39.16
76519;BME280;67029;51.054;13.798;2023-09-19T08:14:14;99925.88;;;27.83;39.22
76519;BME280;67029;51.054;13.798;2023-09-19T08:16:44;99924.42;;;28.04;38.97
76519;BME280;67029;51.054;13.798;2023-09-19T08:19:14;99924.79;;;28.17;38.40
76519;BME280;67029;51.054;13.798;2023-09-19T08:21:46;99928.52;;;28.46;38.45
76519;BME280;67029;51.054;13.798;2023-09-19T08:24:14;99930.40;;;28.75;38.45
76519;BME280;67029;51.054;13.798;2023-09-19T08:26:44;99929.08;;;29.04;37.24
76519;BME280;67029;51.054;13.798;2023-09-19T08:29:14;99934.77;;;29.26;36.71
76519;BME280;67029;51.054;13.798;2023-09-19T08:31:44;99933.50;;;29.38;35.36
76519;BME280;67029;51.054;13.798;2023-09-19T08:34:14;99932.64;;;29.50;35.81
76519;BME280;67029;51.054;13.798;2023-09-19T08:36:44;99938.17;;;29.71;34.82
76519;BME280;67029;51.054;13.798;2023-09-19T08:39:14;99939.69;;;29.89;35.18
76519;BME280;67029;51.054;13.798;2023-09-19T08:41:45;99943.34;;;30.08;34.40
76519;BME280;67029;51.054;13.798;2023-09-19T08:44:15;99947.34;;;30.16;34.02
76519;BME280;67029;51.054;13.798;2023-09-19T08:46:46;99951.38;;;30.25;33.30
76519;BME280;67029;51.054;13.798;2023-09-19T08:49:28;99950.00;;;30.39;33.79
76519;BME280;67029;51.054;13.798;2023-09-19T08:51:59;99953.27;;;30.70;33.79
76519;BME280;67029;51.054;13.798;2023-09-19T08:54:25;99951.55;;;30.96;32.75
76519;BME280;67029;51.054;13.798;2023-09-19T08:56:47;99949.55;;;31.30;33.15
76519;BME280;67029;51.054;13.798;2023-09-19T08:59:21;99947.08;;;31.69;32.56
76519;BME280;67029;51.054;13.798;2023-09-19T09:01:48;99953.80;;;32.09;31.89
76519;BME280;67029;51.054;13.798;2023-09-19T09:04:19;99964.62;;;32.27;31.06
76519;BME280;67029;51.054;13.798;2023-09-19T09:06:50;99955.00;;;32.58;30.99
76519;BME280;67029;51.054;13.798;2023-09-19T09:09:20;99953.22;;;32.82;30.28
76519;BME280;67029;51.054;13.798;2023-09-19T09:11:51;99946.19;;;33.10;30.45
76519;BME280;67029;51.054;13.798;2023-09-19T09:14:21;99953.71;;;33.14;29.86
76519;BME280;67029;51.054;13.798;2023-09-19T09:16:51;99957.31;;;33.02;29.98
76519;BME280;67029;51.054;13.798;2023-09-19T09:19:21;99950.86;;;33.21;28.57
76519;BME280;67029;51.054;13.798;2023-09-19T09:21:51;99948.14;;;33.38;29.13
76519;BME280;67029;51.054;13.798;2023-09-19T09:24:28;99943.66;;;33.65;28.02
76519;BME280;67029;51.054;13.798;2023-09-19T09:26:51;99955.40;;;33.69;27.69
76519;BME280;67029;51.054;13.798;2023-09-19T09:29:41;99947.07;;;33.50;28.29
76519;BME280;67029;51.054;13.798;2023-09-19T09:31:52;99956.59;;;33.39;27.48
76519;BME280;67029;51.054;13.798;2023-09-19T09:34:35;99956.75;;;33.47;27.74
76519;BME280;67029;51.054;13.798;2023-09-19T09:36:53;99964.47;;;33.45;27.79
76519;BME280;67029;51.054;13.798;2023-09-19T09:39:31;99967.77;;;33.30;28.41
76519;BME280;67029;51.054;13.798;2023-09-19T09:41:53;99971.60;;;33.03;28.26
76519;BME280;67029;51.054;13.798;2023-09-19T09:44:23;99970.19;;;32.52;28.35
76519;BME280;67029;51.054;13.798;2023-09-19T09:46:53;99975.84;;;32.28;28.84
76519;BME280;67029;51.054;13.798;2023-09-19T09:49:25;99974.55;;;32.25;28.94
76519;BME280;67029;51.054;13.798;2023-09-19T09:52:02;99974.28;;;32.13;28.78
76519;BME280;67029;51.054;13.798;2023-09-19T09:54:25;99968.42;;;32.24;28.94
76519;BME280;67029;51.054;13.798;2023-09-19T09:56:55;99964.66;;;32.35;29.07
76519;BME280;67029;51.054;13.798;2023-09-19T09:59:55;99965.41;;;32.71;28.62
76519;BME280;67029;51.054;13.798;2023-09-19T10:01:55;99971.88;;;32.83;28.44
76519;BME280;67029;51.054;13.798;2023-09-19T10:04:28;99969.58;;;33.02;28.76
76519;BME280;67029;51.054;13.798;2023-09-19T10:06:55;99968.25;;;33.09;28.01
76519;BME280;67029;51.054;13.798;2023-09-19T10:09:25;99966.02;;;33.34;28.22
76519;BME280;67029;51.054;13.798;2023-09-19T10:12:05;99961.96;;;33.79;27.74
76519;BME280;67029;51.054;13.798;2023-09-19T10:14:30;99964.17;;;34.31;27.83
76519;BME280;67029;51.054;13.798;2023-09-19T10:16:59;99967.23;;;34.75;26.30
76519;BME280;67029;51.054;13.798;2023-09-19T10:19:30;99970.08;;;35.17;26.53
76519;BME280;67029;51.054;13.798;2023-09-19T10:21:58;99976.70;;;35.29;25.88
76519;BME280;67029;51.054;13.798;2023-09-19T10:24:28;99968.19;;;35.56;24.92
76519;BME280;67029;51.054;13.798;2023-09-19T10:26:59;99966.77;;;35.95;25.43
76519;BME280;67029;51.054;13.798;2023-09-19T10:29:32;99962.91;;;36.41;24.96
76519;BME280;67029;51.054;13.798;2023-09-19T10:32:00;99982.34;;;36.55;23.86
76519;BME280;67029;51.054;13.798;2023-09-19T10:34:30;99976.62;;;36.03;24.03
76519;BME280;67029;51.054;13.798;2023-09-19T10:37:02;99971.71;;;35.89;24.45
76519;BME280;67029;51.054;13.798;2023-09-19T10:39:35;99976.22;;;36.14;24.03
76519;BME280;67029;51.054;13.798;2023-09-19T10:42:02;99973.69;;;35.88;24.17
76519;BME280;67029;51.054;13.798;2023-09-19T10:44:33;99965.84;;;35.75;23.64
76519;BME280;67029;51.054;13.798;2023-09-19T10:47:06;99973.38;;;35.79;24.01
76519;BME280;67029;51.054;13.798;2023-09-19T10:54:35;99970.75;;;37.29;22.49
76519;BME280;67029;51.054;13.798;2023-09-19T10:57:05;99973.34;;;37.54;22.13
76519;BME280;67029;51.054;13.798;2023-09-19T10:59:36;99962.86;;;37.60;21.15
76519;BME280;67029;51.054;13.798;2023-09-19T11:02:18;99969.89;;;37.56;21.80
76519;BME280;67029;51.054;13.798;2023-09-19T11:04:36;99969.34;;;37.71;21.31
76519;BME280;67029;51.054;13.798;2023-09-19T11:07:11;99965.78;;;38.03;21.29
76519;BME280;67029;51.054;13.798;2023-09-19T11:09:51;99961.47;;;38.17;20.82
76519;BME280;67029;51.054;13.798;2023-09-19T11:12:07;99960.47;;;38.15;20.24
76519;BME280;67029;51.054;13.798;2023-09-19T11:14:38;99948.75;;;38.38;20.32
76519;BME280;67029;51.054;13.798;2023-09-19T11:22:09;99952.99;;;38.64;18.78
76519;BME280;67029;51.054;13.798;2023-09-19T11:24:39;99952.80;;;38.60;19.32
76519;BME280;67029;51.054;13.798;2023-09-19T11:27:14;99956.22;;;38.43;19.61
76519;BME280;67029;51.054;13.798;2023-09-19T11:32:10;99956.50;;;38.31;19.95
76519;BME280;67029;51.054;13.798;2023-09-19T11:34:41;99958.10;;;38.60;19.75
76519;BME280;67029;51.054;13.798;2023-09-19T11:40:06;99959.42;;;38.66;19.79
76519;BME280;67029;51.054;13.798;2023-09-19T11:44:43;99957.70;;;38.09;19.04
76519;BME280;67029;51.054;13.798;2023-09-19T11:47:13;99956.89;;;37.67;19.64
76519;BME280;67029;51.054;13.798;2023-09-19T11:52:24;99953.84;;;37.15;19.92
76519;BME280;67029;51.054;13.798;2023-09-19T11:54:44;99956.41;;;36.94;20.58
76519;BME280;67029;51.054;13.798;2023-09-19T11:57:22;99963.04;;;36.91;20.66
76519;BME280;67029;51.054;13.798;2023-09-19T11:59:45;99962.78;;;36.89;20.93
76519;BME280;67029;51.054;13.798;2023-09-19T12:02:39;99965.25;;;36.80;20.72
76519;BME280;67029;51.054;13.798;2023-09-19T12:04:53;99967.78;;;36.73;20.56
76519;BME280;67029;51.054;13.798;2023-09-19T12:07:16;99955.59;;;36.51;20.77
76519;BME280;67029;51.054;13.798;2023-09-19T12:09:48;99950.92;;;35.94;21.04
76519;BME280;67029;51.054;13.798;2023-09-19T12:12:24;99956.12;;;35.82;21.45
76519;BME280;67029;51.054;13.798;2023-09-19T12:14:50;99951.55;;;35.87;21.30
76519;BME280;67029;51.054;13.798;2023-09-19T12:17:23;99953.47;;;35.85;21.39
76519;BME280;67029;51.054;13.798;2023-09-19T12:20:01;99956.87;;;35.69;21.62
76519;BME280;67029;51.054;13.798;2023-09-19T12:27:26;99957.46;;;35.33;22.90
76519;BME280;67029;51.054;13.798;2023-09-19T12:32:35;99959.05;;;35.28;23.34
76519;BME280;67029;51.054;13.798;2023-09-19T12:34:55;99954.08;;;35.54;23.29
76519;BME280;67029;51.054;13.798;2023-09-19T12:37:20;99947.92;;;35.55;22.74
76519;BME280;67029;51.054;13.798;2023-09-19T12:39:51;99948.80;;;35.60;22.74
76519;BME280;67029;51.054;13.798;2023-09-19T12:42:29;99954.44;;;35.87;22.67
76519;BME280;67029;51.054;13.798;2023-09-19T12:47:34;99953.30;;;36.48;22.17
76519;BME280;67029;51.054;13.798;2023-09-19T12:50:08;99946.14;;;36.80;21.79
76519;BME280;67029;51.054;13.798;2023-09-19T12:52:22;99941.59;;;36.82;21.42
76519;BME280;67029;51.054;13.798;2023-09-19T12:54:52;99955.02;;;36.57;21.30
76519;BME280;67029;51.054;13.798;2023-09-19T12:57:25;99950.63;;;35.86;21.72
76519;BME280;67029;51.054;13.798;2023-09-19T12:59:53;99947.58;;;35.96;21.96
76519;BME280;67029;51.054;13.798;2023-09-19T13:02:23;99947.35;;;36.05;22.04
76519;BME280;67029;51.054;13.798;2023-09-19T13:04:53;99951.38;;;36.26;22.22
76519;BME280;67029;51.054;13.798;2023-09-19T13:07:41;99952.95;;;36.34;22.16
76519;BME280;67029;51.054;13.798;2023-09-19T13:10:03;99953.44;;;36.30;21.83
76519;BME280;67029;51.054;13.798;2023-09-19T13:12:37;99956.24;;;36.33;22.16
76519;BME280;67029;51.054;13.798;2023-09-19T13:15:07;99953.96;;;35.87;22.17
76519;BME280;67029;51.054;13.798;2023-09-19T13:17:42;99955.91;;;35.95;22.44
76519;BME280;67029;51.054;13.798;2023-09-19T13:19:56;99950.22;;;35.90;22.05
76519;BME280;67029;51.054;13.798;2023-09-19T13:22:42;99947.67;;;35.92;22.03
76519;BME280;67029;51.054;13.798;2023-09-19T13:24:56;99947.41;;;35.71;22.15
76519;BME280;67029;51.054;13.798;2023-09-19T13:27:26;99948.75;;;35.49;22.62
76519;BME280;67029;51.054;13.798;2023-09-19T13:29:56;99943.52;;;35.41;22.55
76519;BME280;67029;51.054;13.798;2023-09-19T13:32:26;99932.77;;;35.37;22.62
76519;BME280;67029;51.054;13.798;2023-09-19T13:34:56;99930.26;;;35.24;22.15
76519;BME280;67029;51.054;13.798;2023-09-19T13:37:26;99938.10;;;35.20;22.41
76519;BME280;67029;51.054;13.798;2023-09-19T13:39:56;99939.70;;;34.64;22.90
76519;BME280;67029;51.054;13.798;2023-09-19T13:42:26;99941.58;;;34.51;23.14
76519;BME280;67029;51.054;13.798;2023-09-19T13:44:56;99934.65;;;34.61;23.12
76519;BME280;67029;51.054;13.798;2023-09-19T13:47:26;99933.02;;;34.82;22.69
76519;BME280;67029;51.054;13.798;2023-09-19T13:49:56;99935.16;;;34.71;22.84